Time;durP1;ratioP1;P1;durP2;ratioP2;P2;SDS_P1;SDS_P2;PMS_P1;PMS_P2;Temp;Humidity;BMP_temperature;BMP_pressure;BME280_temperature;BME280_humidity;BME280_pressure;Samples;Min_cycle;Max_cycle;Signal;HPM_P1;HPM_P2
2022/07/10 00:02:00;;;;;;;0.20;0.10;;;;;;;;;;6124979;23;20461;-85
2022/07/10 00:04:26;;;;;;;0.20;0.10;;;;;;;;;;6124356;23;20075;-87
2022/07/10 00:06:52;;;;;;;0.20;0.10;;;;;;;;;;6100771;23;20018;-85
2022/07/10 00:09:18;;;;;;;0.20;0.10;;;;;;;;;;6075813;23;20020;-85
2022/07/10 00:11:44;;;;;;;0.25;0.20;;;;;;;;;;6076402;23;20021;-85
2022/07/10 00:14:10;;;;;;;0.20;0.10;;;;;;;;;;6124043;23;20100;-88
2022/07/10 00:16:39;;;;;;;0.20;0.10;;;;;;;;;;6077605;23;20016;-87
2022/07/10 00:19:05;;;;;;;0.20;0.10;;;;;;;;;;6127620;23;20365;-85
2022/07/10 00:21:31;;;;;;;0.20;0.10;;;;;;;;;;6103300;23;20017;-88
2022/07/10 00:23:58;;;;;;;0.20;0.10;;;;;;;;;;6127655;23;20056;-85
2022/07/10 00:26:24;;;;;;;0.20;0.10;;;;;;;;;;6079104;23;20508;-86
2022/07/10 00:28:50;;;;;;;0.20;0.10;;;;;;;;;;6078886;23;20017;-86
2022/07/10 00:31:16;;;;;;;0.20;0.10;;;;;;;;;;6127876;23;20020;-86
2022/07/10 00:33:43;;;;;;;0.20;0.10;;;;;;;;;;6079747;23;20014;-85
2022/07/10 00:36:09;;;;;;;0.20;0.10;;;;;;;;;;6128093;23;20047;-86
2022/07/10 00:38:35;;;;;;;0.20;0.05;;;;;;;;;;6127375;23;20456;-86
2022/07/10 00:41:01;;;;;;;0.20;0.10;;;;;;;;;;6128559;23;20017;-85
2022/07/10 00:43:27;;;;;;;0.20;0.10;;;;;;;;;;6127340;23;20021;-85
2022/07/10 00:45:53;;;;;;;0.20;0.10;;;;;;;;;;6127628;23;20018;-85
2022/07/10 00:48:19;;;;;;;0.20;0.10;;;;;;;;;;6127453;23;20014;-83
2022/07/10 00:50:46;;;;;;;0.20;0.10;;;;;;;;;;6077406;23;20013;-86
2022/07/10 00:53:15;;;;;;;0.20;0.10;;;;;;;;;;6125128;23;20045;-85
2022/07/10 00:55:41;;;;;;;0.20;0.10;;;;;;;;;;6101299;23;20069;-86
2022/07/10 00:58:08;;;;;;;0.20;0.10;;;;;;;;;;6077647;23;20560;-85
2022/07/10 01:00:37;;;;;;;0.20;0.10;;;;;;;;;;6077741;23;20016;-86
2022/07/10 01:03:04;;;;;;;38.75;1.00;;;;;;;;;;6101374;23;20009;-86
2022/07/10 01:05:30;;;;;;;0.20;0.10;;;;;;;;;;6127510;23;20013;-85
2022/07/10 01:07:56;;;;;;;0.20;0.10;;;;;;;;;;6101957;23;20024;-85
2022/07/10 01:10:22;;;;;;;0.20;0.10;;;;;;;;;;6078652;23;20014;-85
2022/07/10 01:12:48;;;;;;;0.20;0.10;;;;;;;;;;6103807;23;20009;-85
2022/07/10 01:15:14;;;;;;;0.20;0.10;;;;;;;;;;6103183;23;20020;-85
2022/07/10 01:17:40;;;;;;;0.20;0.10;;;;;;;;;;6079319;23;20037;-87
2022/07/10 01:20:08;;;;;;;0.20;0.00;;;;;;;;;;6079718;23;20020;-85
2022/07/10 01:22:34;;;;;;;0.20;0.10;;;;;;;;;;6079670;23;20017;-86
2022/07/10 01:25:00;;;;;;;0.20;0.10;;;;;;;;;;6078903;23;20492;-85
2022/07/10 01:27:26;;;;;;;0.20;0.10;;;;;;;;;;6079744;23;20405;-86
2022/07/10 01:29:53;;;;;;;0.20;0.10;;;;;;;;;;6125511;23;20018;-85
2022/07/10 01:32:19;;;;;;;0.20;0.10;;;;;;;;;;6126602;23;20020;-87
2022/07/10 01:34:46;;;;;;;0.20;0.10;;;;;;;;;;6101005;23;20068;-85
2022/07/10 01:37:13;;;;;;;0.20;0.00;;;;;;;;;;6078537;23;20020;-86
2022/07/10 01:39:39;;;;;;;0.20;0.10;;;;;;;;;;6125856;23;20096;-86
2022/07/10 01:42:05;;;;;;;0.20;0.10;;;;;;;;;;6126660;23;20048;-86
2022/07/10 01:44:31;;;;;;;0.20;0.10;;;;;;;;;;6126288;23;20021;-86
2022/07/10 01:46:57;;;;;;;0.20;0.10;;;;;;;;;;6077921;23;20354;-89
2022/07/10 01:49:23;;;;;;;0.20;0.10;;;;;;;;;;6126058;23;20068;-86
2022/07/10 01:51:49;;;;;;;0.20;0.10;;;;;;;;;;6077377;23;20014;-88
2022/07/10 01:54:16;;;;;;;0.20;0.10;;;;;;;;;;6125471;23;20528;-86
2022/07/10 01:56:42;;;;;;;0.20;0.10;;;;;;;;;;6077998;23;20010;-86
2022/07/10 01:59:08;;;;;;;0.20;0.10;;;;;;;;;;6126415;23;20017;-86
2022/07/10 02:01:34;;;;;;;0.20;0.10;;;;;;;;;;6126225;23;20028;-85
2022/07/10 02:06:45;;;;;;;0.20;0.10;;;;;;;;;;6105330;23;20021;-85
2022/07/10 02:09:14;;;;;;;0.20;0.10;;;;;;;;;;6124971;23;20109;-86
2022/07/10 02:11:40;;;;;;;0.20;0.10;;;;;;;;;;6122083;23;20397;-85
2022/07/10 02:14:08;;;;;;;0.20;0.10;;;;;;;;;;6075343;23;20020;-86
2022/07/10 02:16:35;;;;;;;0.20;0.10;;;;;;;;;;6101147;23;20092;-86
2022/07/10 02:19:02;;;;;;;0.20;0.10;;;;;;;;;;6100270;23;20059;-85
2022/07/10 02:21:31;;;;;;;0.20;0.10;;;;;;;;;;6101247;23;20014;-84
2022/07/10 02:23:57;;;;;;;0.20;0.10;;;;;;;;;;6125427;23;20068;-85
2022/07/10 02:26:23;;;;;;;0.20;0.10;;;;;;;;;;6077649;23;20024;-85
2022/07/10 02:28:50;;;;;;;0.20;0.10;;;;;;;;;;6125528;23;20044;-86
2022/07/10 02:31:16;;;;;;;0.20;0.10;;;;;;;;;;6077011;23;20072;-86
2022/07/10 02:33:42;;;;;;;0.20;0.10;;;;;;;;;;6125999;23;20020;-86
2022/07/10 02:36:08;;;;;;;0.20;0.10;;;;;;;;;;6100928;23;20513;-86
2022/07/10 02:38:34;;;;;;;0.20;0.10;;;;;;;;;;6125291;23;20014;-85
2022/07/10 02:41:00;;;;;;;0.20;0.00;;;;;;;;;;6077019;23;20018;-85
2022/07/10 02:43:26;;;;;;;0.20;0.10;;;;;;;;;;6077130;23;20018;-86
2022/07/10 02:45:52;;;;;;;0.20;0.10;;;;;;;;;;6076780;23;20056;-86
2022/07/10 02:48:19;;;;;;;1.05;0.95;;;;;;;;;;6077329;23;20477;-86
2022/07/10 02:50:45;;;;;;;0.20;0.00;;;;;;;;;;6076850;23;20021;-87
2022/07/10 02:53:11;;;;;;;0.20;0.10;;;;;;;;;;6125454;23;20386;-87
2022/07/10 02:55:37;;;;;;;0.20;0.10;;;;;;;;;;6076314;23;20094;-84
2022/07/10 02:58:03;;;;;;;0.20;0.10;;;;;;;;;;6125813;23;20341;-85
2022/07/10 03:00:29;;;;;;;0.20;0.10;;;;;;;;;;6077038;23;20017;-85
2022/07/10 03:02:56;;;;;;;0.20;0.10;;;;;;;;;;6124975;23;20035;-85
2022/07/10 03:05:22;;;;;;;0.20;0.10;;;;;;;;;;6124890;23;20084;-86
2022/07/10 03:07:48;;;;;;;0.20;0.10;;;;;;;;;;6149658;23;20009;-85
2022/07/10 03:10:14;;;;;;;0.20;0.10;;;;;;;;;;6076912;23;20338;-85
2022/07/10 03:12:41;;;;;;;0.20;0.10;;;;;;;;;;6124969;23;20493;-85
2022/07/10 03:15:07;;;;;;;0.20;0.10;;;;;;;;;;6099797;23;20020;-85
2022/07/10 03:17:33;;;;;;;0.20;0.10;;;;;;;;;;6124994;23;20048;-86
2022/07/10 03:19:59;;;;;;;0.20;0.10;;;;;;;;;;6074949;23;20029;-85
2022/07/10 03:22:25;;;;;;;0.20;0.10;;;;;;;;;;6074699;23;20017;-87
2022/07/10 03:24:51;;;;;;;0.20;0.10;;;;;;;;;;6074363;23;20100;-86
2022/07/10 03:27:17;;;;;;;0.20;0.10;;;;;;;;;;6099250;23;20017;-86
2022/07/10 03:29:43;;;;;;;0.20;0.10;;;;;;;;;;6124977;23;20025;-88
2022/07/10 03:32:09;;;;;;;0.20;0.10;;;;;;;;;;6076514;23;20014;-85
2022/07/10 03:34:36;;;;;;;0.20;0.10;;;;;;;;;;6076235;23;20013;-86
2022/07/10 03:37:02;;;;;;;0.20;0.10;;;;;;;;;;6098917;23;20144;-85
2022/07/10 03:39:28;;;;;;;0.20;0.10;;;;;;;;;;6100562;23;20017;-86
2022/07/10 03:41:55;;;;;;;0.20;0.10;;;;;;;;;;6125139;23;20035;-87
2022/07/10 03:44:21;;;;;;;0.20;0.10;;;;;;;;;;6100551;23;20049;-86
2022/07/10 03:46:47;;;;;;;0.20;0.10;;;;;;;;;;6124958;23;20021;-87
2022/07/10 03:51:41;;;;;;;0.20;0.10;;;;;;;;;;6181249;23;20063;-86
2022/07/10 03:54:08;;;;;;;0.20;0.10;;;;;;;;;;6129411;23;20017;-86
2022/07/10 03:59:18;;;;;;;0.20;0.00;;;;;;;;;;6154167;23;20021;-85
2022/07/10 04:01:44;;;;;;;0.20;0.10;;;;;;;;;;6154733;23;20481;-85
2022/07/10 04:04:11;;;;;;;0.20;0.00;;;;;;;;;;6105216;23;20024;-86
2022/07/10 04:06:39;;;;;;;0.20;0.10;;;;;;;;;;6129924;23;20027;-85
2022/07/10 04:09:06;;;;;;;0.20;0.10;;;;;;;;;;6105804;23;20024;-86
2022/07/10 04:11:32;;;;;;;0.20;0.10;;;;;;;;;;6154446;23;20031;-86
2022/07/10 04:13:58;;;;;;;0.20;0.10;;;;;;;;;;6129715;23;20067;-86
2022/07/10 04:16:24;;;;;;;0.20;0.10;;;;;;;;;;6105364;23;20084;-86
2022/07/10 04:18:50;;;;;;;0.20;0.10;;;;;;;;;;6158354;23;20017;-85
2022/07/10 04:21:16;;;;;;;0.20;0.10;;;;;;;;;;6109432;23;20023;-85
2022/07/10 04:23:42;;;;;;;0.20;0.10;;;;;;;;;;6133656;23;20013;-85
2022/07/10 04:26:08;;;;;;;0.20;0.10;;;;;;;;;;6109798;23;20017;-85
2022/07/10 04:28:34;;;;;;;0.20;0.10;;;;;;;;;;6132494;23;20336;-86
2022/07/10 04:31:00;;;;;;;0.20;0.10;;;;;;;;;;6108729;23;20020;-86
2022/07/10 04:33:26;;;;;;;0.20;0.10;;;;;;;;;;6133184;23;20068;-86
2022/07/10 04:35:53;;;;;;;0.20;0.10;;;;;;;;;;6109238;23;20031;-86
2022/07/10 04:38:19;;;;;;;0.20;0.10;;;;;;;;;;6133697;23;20009;-86
2022/07/10 04:40:45;;;;;;;0.20;0.10;;;;;;;;;;6109447;23;20041;-85
2022/07/10 04:43:11;;;;;;;0.20;0.10;;;;;;;;;;6109484;23;20013;-86
2022/07/10 04:45:37;;;;;;;0.20;0.10;;;;;;;;;;6109554;23;20485;-87
2022/07/10 04:48:04;;;;;;;0.20;0.10;;;;;;;;;;6158179;23;20065;-85
2022/07/10 04:50:30;;;;;;;0.20;0.10;;;;;;;;;;6157709;23;20013;-85
2022/07/10 04:52:56;;;;;;;0.20;0.10;;;;;;;;;;6158285;23;20064;-86
2022/07/10 04:55:23;;;;;;;0.20;0.10;;;;;;;;;;6133244;23;20009;-85
2022/07/10 04:57:49;;;;;;;0.20;0.10;;;;;;;;;;6109733;23;20013;-85
2022/07/10 05:00:15;;;;;;;0.20;0.10;;;;;;;;;;6133907;23;20051;-85
2022/07/10 05:02:41;;;;;;;0.20;0.10;;;;;;;;;;6109134;23;20091;-86
2022/07/10 05:05:08;;;;;;;0.20;0.10;;;;;;;;;;6135002;23;20071;-86
2022/07/10 05:07:34;;;;;;;0.20;0.10;;;;;;;;;;6160397;23;20465;-85
2022/07/10 05:10:00;;;;;;;0.20;0.10;;;;;;;;;;6111080;23;20515;-86
2022/07/10 05:12:26;;;;;;;0.20;0.10;;;;;;;;;;6111522;23;20100;-87
2022/07/10 05:14:52;;;;;;;0.20;0.10;;;;;;;;;;6135297;23;20020;-86
2022/07/10 05:17:18;;;;;;;0.20;0.10;;;;;;;;;;6159979;23;20353;-85
2022/07/10 05:19:44;;;;;;;0.20;0.10;;;;;;;;;;6110968;23;20045;-85
2022/07/10 05:22:10;;;;;;;0.20;0.03;;;;;;;;;;6160146;23;20013;-87
2022/07/10 05:24:37;;;;;;;0.20;0.10;;;;;;;;;;6110869;23;20063;-85
2022/07/10 05:27:03;;;;;;;0.20;0.10;;;;;;;;;;6135412;23;20016;-87
2022/07/10 05:29:29;;;;;;;0.20;0.10;;;;;;;;;;6134939;23;20544;-85
2022/07/10 05:31:55;;;;;;;0.20;0.10;;;;;;;;;;6159762;23;20372;-86
2022/07/10 05:34:21;;;;;;;0.20;0.10;;;;;;;;;;6135350;23;20009;-85
2022/07/10 05:36:47;;;;;;;0.20;0.10;;;;;;;;;;6134966;23;20020;-86
2022/07/10 05:39:13;;;;;;;0.20;0.10;;;;;;;;;;6110855;23;20017;-86
2022/07/10 05:41:39;;;;;;;0.20;0.10;;;;;;;;;;6110942;23;20013;-85
2022/07/10 05:44:05;;;;;;;0.20;0.10;;;;;;;;;;6135729;23;20071;-85
2022/07/10 05:46:31;;;;;;;0.20;0.10;;;;;;;;;;6158935;23;20405;-85
2022/07/10 05:48:57;;;;;;;0.20;0.10;;;;;;;;;;6159186;23;20096;-86
2022/07/10 05:51:24;;;;;;;0.20;0.10;;;;;;;;;;6159322;23;20060;-86
2022/07/10 05:53:50;;;;;;;0.20;0.10;;;;;;;;;;6110191;23;20013;-87
2022/07/10 05:56:16;;;;;;;0.20;0.10;;;;;;;;;;6159691;23;20013;-85
2022/07/10 05:58:42;;;;;;;0.20;0.10;;;;;;;;;;6134817;23;20465;-86
2022/07/10 06:01:08;;;;;;;0.20;0.10;;;;;;;;;;6134547;23;20096;-85
2022/07/10 06:03:35;;;;;;;0.20;0.10;;;;;;;;;;6110625;23;20012;-85
2022/07/10 06:06:01;;;;;;;0.20;0.10;;;;;;;;;;6135039;23;20119;-87
2022/07/10 06:08:27;;;;;;;0.20;0.10;;;;;;;;;;6135085;23;20044;-86
2022/07/10 06:10:53;;;;;;;0.20;0.10;;;;;;;;;;6110749;23;20017;-85
2022/07/10 06:13:22;;;;;;;0.20;0.00;;;;;;;;;;6135387;23;20052;-85
2022/07/10 06:15:48;;;;;;;0.20;0.10;;;;;;;;;;6134335;23;20013;-86
2022/07/10 06:18:14;;;;;;;0.20;0.10;;;;;;;;;;6134976;23;20009;-86
2022/07/10 06:20:40;;;;;;;0.20;0.10;;;;;;;;;;6109915;23;20013;-86
2022/07/10 06:23:06;;;;;;;0.20;0.10;;;;;;;;;;6133524;23;20103;-86
2022/07/10 06:25:33;;;;;;;0.20;0.10;;;;;;;;;;6156664;23;20009;-86
2022/07/10 06:27:59;;;;;;;0.47;0.43;;;;;;;;;;6109087;23;20508;-86
2022/07/10 06:30:27;;;;;;;0.20;0.10;;;;;;;;;;6133934;23;20063;-87
2022/07/10 06:32:54;;;;;;;0.20;0.10;;;;;;;;;;6132962;23;20035;-86
2022/07/10 06:35:20;;;;;;;0.20;0.10;;;;;;;;;;6133306;23;20017;-86
2022/07/10 06:37:46;;;;;;;0.20;0.10;;;;;;;;;;6157690;23;20009;-86
2022/07/10 06:40:14;;;;;;;0.20;0.10;;;;;;;;;;6132373;23;20461;-85
2022/07/10 06:42:40;;;;;;;0.20;0.10;;;;;;;;;;6132902;23;20475;-86
2022/07/10 06:45:07;;;;;;;0.20;0.10;;;;;;;;;;6109341;23;20017;-85
2022/07/10 06:50:17;;;;;;;0.20;0.10;;;;;;;;;;6137606;23;20021;-86
2022/07/10 06:52:44;;;;;;;0.20;0.10;;;;;;;;;;6159165;23;20013;-87
2022/07/10 06:55:25;;;;;;;0.20;0.10;;;;;;;;;;6133940;23;20015;-88
2022/07/10 06:57:51;;;;;;;0.20;0.10;;;;;;;;;;6113762;23;20020;-86
2022/07/10 07:00:18;;;;;;;0.20;0.10;;;;;;;;;;6109484;23;20045;-87
2022/07/10 07:02:44;;;;;;;0.20;0.10;;;;;;;;;;6133145;23;20028;-87
2022/07/10 07:05:10;;;;;;;0.20;0.10;;;;;;;;;;6158347;23;20476;-86
2022/07/10 07:07:38;;;;;;;0.20;0.10;;;;;;;;;;6134208;23;20021;-87
2022/07/10 07:10:10;;;;;;;0.20;0.10;;;;;;;;;;6134428;23;20024;-86
2022/07/10 07:12:37;;;;;;;0.20;0.10;;;;;;;;;;6109536;23;20020;-85
2022/07/10 07:15:03;;;;;;;0.20;0.10;;;;;;;;;;6158176;23;20013;-85
2022/07/10 07:25:29;;;;;;;0.20;0.10;;;;;;;;;;6138866;23;20021;-89
2022/07/10 07:27:55;;;;;;;0.20;0.10;;;;;;;;;;6134103;23;20139;-90
2022/07/10 07:30:22;;;;;;;0.20;0.10;;;;;;;;;;6105427;23;20021;-88
2022/07/10 07:32:48;;;;;;;0.20;0.10;;;;;;;;;;6128617;23;20230;-89
2022/07/10 07:35:15;;;;;;;0.20;0.10;;;;;;;;;;6129975;23;20009;-90
2022/07/10 07:37:45;;;;;;;0.20;0.10;;;;;;;;;;6081175;23;20526;-90
2022/07/10 07:40:23;;;;;;;0.20;0.10;;;;;;;;;;6130287;23;20021;-90
2022/07/10 07:42:56;;;;;;;0.20;0.10;;;;;;;;;;6129693;23;20092;-91
2022/07/10 07:45:23;;;;;;;0.20;0.10;;;;;;;;;;6130356;23;20013;-88
2022/07/10 07:47:53;;;;;;;0.20;0.10;;;;;;;;;;6128287;23;20021;-90
2022/07/10 07:50:23;;;;;;;0.20;0.10;;;;;;;;;;6129081;23;20062;-90
2022/07/10 07:52:49;;;;;;;0.20;0.10;;;;;;;;;;6129641;23;20024;-91
2022/07/10 07:55:16;;;;;;;0.20;0.10;;;;;;;;;;6130397;23;20397;-91
2022/07/10 07:57:43;;;;;;;0.20;0.10;;;;;;;;;;6130495;23;20013;-89
2022/07/10 08:00:10;;;;;;;0.20;0.00;;;;;;;;;;6129988;23;20404;-87
2022/07/10 08:02:36;;;;;;;0.20;0.10;;;;;;;;;;6130767;23;20021;-90
2022/07/10 08:05:06;;;;;;;0.20;0.10;;;;;;;;;;6130495;23;20017;-91
2022/07/10 08:07:35;;;;;;;0.20;0.08;;;;;;;;;;6082481;23;20024;-89
2022/07/10 08:10:02;;;;;;;0.20;0.10;;;;;;;;;;6131209;23;20013;-89
2022/07/10 08:12:31;;;;;;;0.20;0.10;;;;;;;;;;6082831;23;20024;-90
2022/07/10 08:14:58;;;;;;;0.20;0.10;;;;;;;;;;6128779;23;20020;-89
2022/07/10 08:17:25;;;;;;;0.20;0.00;;;;;;;;;;6129403;23;20009;-87
2022/07/10 08:19:51;;;;;;;0.20;0.10;;;;;;;;;;6130049;23;20018;-91
2022/07/10 08:22:17;;;;;;;0.20;0.10;;;;;;;;;;6081860;23;20025;-90
2022/07/10 08:24:43;;;;;;;0.20;0.10;;;;;;;;;;6129910;23;20025;-91
2022/07/10 08:27:12;;;;;;;0.20;0.10;;;;;;;;;;6081775;23;20018;-90
2022/07/10 08:29:38;;;;;;;0.20;0.10;;;;;;;;;;6130186;23;20017;-89
2022/07/10 08:32:10;;;;;;;0.20;0.10;;;;;;;;;;6081229;23;20016;-90
2022/07/10 08:34:36;;;;;;;0.20;0.10;;;;;;;;;;6128627;23;20481;-90
2022/07/10 08:37:03;;;;;;;0.20;0.10;;;;;;;;;;6130326;23;20029;-88
2022/07/10 08:39:29;;;;;;;0.20;0.10;;;;;;;;;;6132050;23;20013;-87
2022/07/10 08:41:55;;;;;;;0.20;0.10;;;;;;;;;;6089612;23;20017;-90
2022/07/10 08:44:22;;;;;;;0.20;0.10;;;;;;;;;;6140927;23;20017;-89
2022/07/10 08:46:48;;;;;;;0.20;0.10;;;;;;;;;;6116193;23;20091;-89
2022/07/10 08:49:16;;;;;;;0.20;0.10;;;;;;;;;;6140574;23;20065;-87
2022/07/10 08:51:54;;;;;;;0.20;0.10;;;;;;;;;;6140694;23;20014;-86
2022/07/10 08:54:24;;;;;;;0.20;0.10;;;;;;;;;;6139126;23;20018;-88
2022/07/10 08:56:50;;;;;;;0.20;0.10;;;;;;;;;;6139387;23;20009;-86
2022/07/10 08:59:19;;;;;;;0.20;0.10;;;;;;;;;;6139409;23;20017;-88
2022/07/10 09:01:48;;;;;;;0.20;0.10;;;;;;;;;;6090012;23;20017;-89
2022/07/10 09:04:21;;;;;;;0.20;0.10;;;;;;;;;;6115760;23;20021;-88
2022/07/10 09:06:48;;;;;;;0.20;0.10;;;;;;;;;;6139246;23;20017;-91
2022/07/10 09:09:17;;;;;;;0.20;0.10;;;;;;;;;;6139733;23;20468;-90
2022/07/10 09:11:47;;;;;;;0.20;0.10;;;;;;;;;;6137308;23;20049;-90
2022/07/10 09:14:23;;;;;;;0.20;0.10;;;;;;;;;;6084551;23;20595;-90
2022/07/10 09:16:54;;;;;;;0.20;0.10;;;;;;;;;;6085454;23;20019;-90
2022/07/10 09:19:21;;;;;;;0.20;0.10;;;;;;;;;;6132391;23;20092;-88
2022/07/10 09:21:49;;;;;;;0.20;0.10;;;;;;;;;;6107795;23;20013;-88
2022/07/10 09:24:24;;;;;;;0.20;0.10;;;;;;;;;;6132329;23;20039;-89
2022/07/10 09:27:01;;;;;;;0.20;0.10;;;;;;;;;;6131791;23;20404;-88
2022/07/10 09:29:27;;;;;;;0.20;0.10;;;;;;;;;;6131462;23;20353;-89
2022/07/10 09:31:57;;;;;;;0.20;0.10;;;;;;;;;;6131553;23;20013;-89
2022/07/10 09:34:45;;;;;;;0.20;0.03;;;;;;;;;;6086448;23;20085;-89
2022/07/10 09:37:18;;;;;;;0.20;0.10;;;;;;;;;;6135005;23;20140;-89
2022/07/10 09:39:57;;;;;;;0.20;0.10;;;;;;;;;;6133103;23;20014;-90
2022/07/10 09:42:26;;;;;;;0.20;0.10;;;;;;;;;;6133430;23;20028;-90
2022/07/10 09:44:53;;;;;;;0.20;0.10;;;;;;;;;;6133350;23;20064;-90
2022/07/10 09:47:26;;;;;;;0.20;0.10;;;;;;;;;;6085146;23;20017;-90
2022/07/10 09:49:55;;;;;;;0.20;0.10;;;;;;;;;;6129646;23;20073;-86
2022/07/10 09:52:21;;;;;;;0.20;0.10;;;;;;;;;;6106635;23;20096;-88
2022/07/10 09:54:47;;;;;;;0.20;0.10;;;;;;;;;;6130352;23;20017;-89
2022/07/10 09:57:17;;;;;;;0.20;0.10;;;;;;;;;;6083165;23;20013;-91
2022/07/10 09:59:44;;;;;;;0.20;0.10;;;;;;;;;;6082264;23;20024;-89
2022/07/10 10:02:11;;;;;;;0.20;0.10;;;;;;;;;;6082212;23;20068;-88
2022/07/10 10:04:38;;;;;;;0.20;0.10;;;;;;;;;;6082760;23;20017;-90
2022/07/10 10:07:04;;;;;;;0.20;0.10;;;;;;;;;;6130779;23;20029;-89
2022/07/10 10:09:37;;;;;;;0.20;0.10;;;;;;;;;;6081970;23;20018;-87
2022/07/10 10:12:27;;;;;;;0.20;0.10;;;;;;;;;;6130143;23;20013;-88
2022/07/10 10:14:57;;;;;;;0.20;0.10;;;;;;;;;;6133639;23;20013;-90
2022/07/10 10:17:28;;;;;;;0.20;0.10;;;;;;;;;;6133120;23;20060;-91
2022/07/10 10:22:44;;;;;;;0.20;0.10;;;;;;;;;;6132019;23;20096;-90
2022/07/10 10:25:17;;;;;;;0.20;0.10;;;;;;;;;;6132626;23;20457;-90
2022/07/10 10:27:44;;;;;;;0.20;0.10;;;;;;;;;;6131971;23;20488;-90
2022/07/10 10:30:16;;;;;;;0.20;0.10;;;;;;;;;;6071381;23;20026;-90
2022/07/10 10:32:48;;;;;;;0.20;0.10;;;;;;;;;;6046279;23;20014;-90
2022/07/10 10:35:35;;;;;;;0.20;0.10;;;;;;;;;;6045426;23;20475;-88
2022/07/10 10:38:01;;;;;;;0.20;0.10;;;;;;;;;;6043905;23;20154;-90
2022/07/10 10:40:36;;;;;;;0.20;0.10;;;;;;;;;;6045691;23;20026;-89
2022/07/10 10:43:21;;;;;;;0.20;0.10;;;;;;;;;;6046605;23;20111;-88
2022/07/10 10:45:51;;;;;;;0.20;0.10;;;;;;;;;;6021445;23;20014;-89
2022/07/10 10:48:20;;;;;;;0.20;0.10;;;;;;;;;;6042907;23;20022;-91
2022/07/10 10:51:05;;;;;;;0.20;0.10;;;;;;;;;;6045225;23;20021;-89
2022/07/10 10:53:37;;;;;;;2.30;0.90;;;;;;;;;;6047078;23;20014;-91
2022/07/10 10:56:03;;;;;;;0.20;0.10;;;;;;;;;;6043098;23;20042;-89
2022/07/10 10:58:49;;;;;;;0.20;0.10;;;;;;;;;;6089684;23;20027;-89
2022/07/10 11:01:26;;;;;;;0.20;0.10;;;;;;;;;;6077096;23;20092;-88
2022/07/10 11:04:12;;;;;;;0.20;0.10;;;;;;;;;;6125633;23;20022;-87
2022/07/10 11:06:51;;;;;;;0.20;0.10;;;;;;;;;;6125287;23;20021;-88
2022/07/10 11:09:26;;;;;;;0.20;0.10;;;;;;;;;;6124869;23;20024;-89
2022/07/10 11:12:10;;;;;;;0.20;0.10;;;;;;;;;;6126140;23;20013;-89
2022/07/10 11:14:40;;;;;;;0.20;0.10;;;;;;;;;;6125497;23;20024;-89
2022/07/10 11:17:15;;;;;;;0.20;0.10;;;;;;;;;;6128435;23;20014;-90
2022/07/10 11:19:53;;;;;;;0.20;0.10;;;;;;;;;;6102773;23;20079;-88
2022/07/10 11:22:38;;;;;;;0.20;0.10;;;;;;;;;;6129016;23;20029;-89
2022/07/10 11:25:14;;;;;;;0.20;0.10;;;;;;;;;;6128604;23;20017;-89
2022/07/10 11:28:01;;;;;;;0.20;0.10;;;;;;;;;;6127629;23;20077;-88
2022/07/10 11:30:45;;;;;;;0.20;0.10;;;;;;;;;;6127299;23;20209;-89
2022/07/10 11:33:14;;;;;;;0.20;0.10;;;;;;;;;;6126994;23;20017;-88
2022/07/10 11:35:44;;;;;;;0.20;0.10;;;;;;;;;;6126529;23;20015;-87
2022/07/10 11:38:16;;;;;;;0.20;0.10;;;;;;;;;;6127056;23;20376;-89
2022/07/10 11:40:49;;;;;;;0.20;0.10;;;;;;;;;;6122676;23;20024;-88
2022/07/10 11:43:23;;;;;;;0.20;0.10;;;;;;;;;;6123437;23;20009;-90
2022/07/10 11:45:50;;;;;;;0.20;0.10;;;;;;;;;;6122966;23;20020;-88
2022/07/10 11:48:39;;;;;;;0.20;0.10;;;;;;;;;;6124866;23;20036;-89
2022/07/10 11:51:16;;;;;;;0.20;0.10;;;;;;;;;;6124738;23;20020;-89
2022/07/10 11:54:12;;;;;;;0.20;0.10;;;;;;;;;;6124880;23;20021;-91
2022/07/10 11:56:41;;;;;;;0.20;0.10;;;;;;;;;;6124748;23;20100;-91
2022/07/10 11:59:17;;;;;;;;;;;;;;;;;;;;;
2022/07/10 12:01:48;;;;;;;0.20;0.10;;;;;;;;;;6127733;23;20080;-90
2022/07/10 12:04:16;;;;;;;0.20;0.10;;;;;;;;;;6127822;23;20458;-89
2022/07/10 12:06:44;;;;;;;0.20;0.03;;;;;;;;;;6130349;23;20013;-89
2022/07/10 12:09:17;;;;;;;0.20;0.10;;;;;;;;;;6129293;23;20100;-90
2022/07/10 12:12:13;;;;;;;0.20;0.10;;;;;;;;;;6153987;23;20024;-91
2022/07/10 12:15:11;;;;;;;0.20;0.10;;;;;;;;;;6127428;23;20013;-88
2022/07/10 12:17:55;;;;;;;0.20;0.10;;;;;;;;;;6137530;23;20014;-89
2022/07/10 12:20:27;;;;;;;0.20;0.10;;;;;;;;;;6124700;23;20053;-88
2022/07/10 12:23:05;;;;;;;0.20;0.10;;;;;;;;;;6120314;23;20045;-89
2022/07/10 12:25:40;;;;;;;0.20;0.10;;;;;;;;;;6120896;23;20014;-88
2022/07/10 12:28:15;;;;;;;0.20;0.10;;;;;;;;;;6076974;23;20024;-90
2022/07/10 12:30:43;;;;;;;0.20;0.10;;;;;;;;;;6124268;23;20349;-89
2022/07/10 12:33:16;;;;;;;0.20;0.10;;;;;;;;;;6123852;23;20018;-86
2022/07/10 12:36:00;;;;;;;0.20;0.10;;;;;;;;;;6123047;23;20469;-88
2022/07/10 12:38:32;;;;;;;0.20;0.10;;;;;;;;;;6124116;23;20040;-87
2022/07/10 12:41:28;;;;;;;0.20;0.10;;;;;;;;;;6124487;23;20021;-90
2022/07/10 12:43:54;;;;;;;0.20;0.10;;;;;;;;;;6098996;23;20017;-87
2022/07/10 12:46:29;;;;;;;0.20;0.10;;;;;;;;;;6121245;23;20346;-89
2022/07/10 12:49:03;;;;;;;0.20;0.10;;;;;;;;;;6123032;23;20044;-91
2022/07/10 12:51:43;;;;;;;0.20;0.10;;;;;;;;;;6127283;23;20025;-89
2022/07/10 12:54:28;;;;;;;0.20;0.10;;;;;;;;;;6124819;23;20017;-89
2022/07/10 12:56:57;;;;;;;0.20;0.10;;;;;;;;;;6120098;23;20036;-90
2022/07/10 12:59:47;;;;;;;0.20;0.05;;;;;;;;;;6122240;23;20049;-89
2022/07/10 13:02:20;;;;;;;0.20;0.10;;;;;;;;;;6117175;23;20024;-90
2022/07/10 13:05:12;;;;;;;0.20;0.10;;;;;;;;;;6118198;23;20032;-89
2022/07/10 13:07:46;;;;;;;0.20;0.10;;;;;;;;;;6089225;23;20110;-91
2022/07/10 13:10:16;;;;;;;0.20;0.10;;;;;;;;;;6073818;23;20068;-88
2022/07/10 13:13:07;;;;;;;0.20;0.10;;;;;;;;;;6072791;23;20049;-89
2022/07/10 13:15:39;;;;;;;0.20;0.10;;;;;;;;;;6107351;23;20017;-88
2022/07/10 13:18:06;;;;;;;0.20;0.10;;;;;;;;;;6122888;23;20088;-89
2022/07/10 13:20:38;;;;;;;0.20;0.10;;;;;;;;;;6075178;23;20569;-89
2022/07/10 13:23:04;;;;;;;0.20;0.10;;;;;;;;;;6078461;23;20020;-89
2022/07/10 13:25:31;;;;;;;0.20;0.10;;;;;;;;;;6124008;23;20116;-91
2022/07/10 13:27:57;;;;;;;0.20;0.10;;;;;;;;;;6125028;23;20048;-87
2022/07/10 13:30:26;;;;;;;0.20;0.10;;;;;;;;;;6123033;23;20017;-87
2022/07/10 13:32:55;;;;;;;0.20;0.10;;;;;;;;;;6127114;23;20020;-86
2022/07/10 13:35:21;;;;;;;0.20;0.17;;;;;;;;;;6127821;23;20013;-88
2022/07/10 13:37:47;;;;;;;0.20;0.10;;;;;;;;;;6128323;23;20013;-87
2022/07/10 13:40:16;;;;;;;0.20;0.10;;;;;;;;;;6077294;23;20013;-90
2022/07/10 13:42:46;;;;;;;0.20;0.10;;;;;;;;;;6126601;23;20018;-90
2022/07/10 13:45:18;;;;;;;0.20;0.10;;;;;;;;;;6075531;23;20428;-89
2022/07/10 13:47:52;;;;;;;0.20;0.10;;;;;;;;;;6124402;23;20021;-88
2022/07/10 13:50:23;;;;;;;0.20;0.20;;;;;;;;;;6127910;23;20025;-89
2022/07/10 13:53:11;;;;;;;;;;;;;;;;;;;;;
2022/07/10 13:56:14;;;;;;;0.20;0.10;;;;;;;;;;6103599;23;20532;-92
2022/07/10 13:58:46;;;;;;;0.20;0.10;;;;;;;;;;6126978;23;20127;-87
2022/07/10 14:01:38;;;;;;;0.20;0.10;;;;;;;;;;6076175;23;20028;-91
2022/07/10 14:04:28;;;;;;;0.20;0.10;;;;;;;;;;6122852;23;20057;-90
2022/07/10 14:07:07;;;;;;;0.20;0.10;;;;;;;;;;6117718;23;20096;-89
2022/07/10 14:09:51;;;;;;;;;;;;;;;;;;;;;
2022/07/10 14:12:26;;;;;;;0.20;0.10;;;;;;;;;;6107381;23;20014;-89
2022/07/10 14:15:03;;;;;;;0.20;0.10;;;;;;;;;;6126642;23;20013;-90
2022/07/10 14:17:41;;;;;;;0.20;0.10;;;;;;;;;;6080731;23;20413;-91
2022/07/10 14:20:21;;;;;;;0.20;0.10;;;;;;;;;;6153562;23;20522;-90
2022/07/10 14:22:50;;;;;;;0.20;0.10;;;;;;;;;;6126833;23;20018;-89
2022/07/10 14:25:17;;;;;;;0.20;0.10;;;;;;;;;;6122471;23;20048;-88
2022/07/10 14:27:59;;;;;;;0.20;0.10;;;;;;;;;;6126221;23;20017;-89
2022/07/10 14:30:25;;;;;;;0.20;0.10;;;;;;;;;;6126824;23;20492;-89
2022/07/10 14:32:55;;;;;;;0.20;0.10;;;;;;;;;;6077319;23;20017;-90
2022/07/10 14:35:34;;;;;;;0.20;0.10;;;;;;;;;;6076888;23;20049;-90
2022/07/10 14:38:00;;;;;;;0.20;0.10;;;;;;;;;;6079975;23;20052;-90
2022/07/10 14:40:27;;;;;;;0.20;0.10;;;;;;;;;;6123266;23;20077;-92
2022/07/10 14:42:58;;;;;;;0.20;0.10;;;;;;;;;;6126511;23;20017;-91
2022/07/10 14:45:32;;;;;;;0.20;0.10;;;;;;;;;;6077480;23;20013;-90
2022/07/10 14:48:19;;;;;;;0.20;0.10;;;;;;;;;;6124026;23;20156;-90
2022/07/10 14:50:45;;;;;;;0.20;0.10;;;;;;;;;;6122735;23;20032;-87
2022/07/10 14:53:11;;;;;;;0.20;0.10;;;;;;;;;;6123682;23;20018;-85
2022/07/10 14:55:43;;;;;;;0.20;0.10;;;;;;;;;;6124122;23;20283;-89
2022/07/10 14:58:09;;;;;;;0.20;0.10;;;;;;;;;;6075290;23;20009;-89
2022/07/10 15:00:38;;;;;;;0.20;0.10;;;;;;;;;;6120108;23;20023;-92
2022/07/10 15:03:12;;;;;;;0.20;0.10;;;;;;;;;;6123023;23;20100;-90
2022/07/10 15:05:39;;;;;;;0.20;0.10;;;;;;;;;;6124338;23;20346;-90
2022/07/10 15:08:05;;;;;;;0.20;0.10;;;;;;;;;;6126307;23;20033;-90
2022/07/10 15:10:32;;;;;;;0.20;0.10;;;;;;;;;;6123076;23;20131;-91
2022/07/10 15:13:04;;;;;;;0.20;0.10;;;;;;;;;;6127317;23;20049;-90
2022/07/10 15:15:39;;;;;;;0.20;0.10;;;;;;;;;;6126600;23;20013;-92
2022/07/10 15:18:06;;;;;;;0.20;0.10;;;;;;;;;;6122589;23;20014;-90
2022/07/10 15:20:36;;;;;;;0.20;0.10;;;;;;;;;;6075458;23;20013;-91
2022/07/10 15:23:18;;;;;;;0.20;0.10;;;;;;;;;;6127732;23;20346;-91